sensor_id;sensor_type;location;lat;lon;timestamp;pressure;altitude;pressure_sealevel;temperature;humidity
44138;BME280;29800;55.942;37.314;2023-02-04T00:01:12;98891.66;;;1.93;70.35
44138;BME280;29800;55.942;37.314;2023-02-04T00:03:38;98885.66;;;1.91;70.54
44138;BME280;29800;55.942;37.314;2023-02-04T00:06:04;98891.25;;;1.96;70.65
44138;BME280;29800;55.942;37.314;2023-02-04T00:08:31;98887.94;;;1.94;70.83
44138;BME280;29800;55.942;37.314;2023-02-04T00:10:57;98890.81;;;1.99;70.92
44138;BME280;29800;55.942;37.314;2023-02-04T00:13:23;98894.34;;;2.00;70.35
44138;BME280;29800;55.942;37.314;2023-02-04T00:15:49;98895.78;;;2.02;70.57
44138;BME280;29800;55.942;37.314;2023-02-04T00:18:14;98893.88;;;2.10;69.66
44138;BME280;29800;55.942;37.314;2023-02-04T00:20:41;98898.25;;;2.11;69.65
44138;BME280;29800;55.942;37.314;2023-02-04T00:23:07;98901.97;;;2.10;69.85
44138;BME280;29800;55.942;37.314;2023-02-04T00:25:33;98897.63;;;2.09;69.11
44138;BME280;29800;55.942;37.314;2023-02-04T00:27:59;98895.97;;;2.08;68.87
44138;BME280;29800;55.942;37.314;2023-02-04T00:30:30;98901.19;;;2.02;69.21
44138;BME280;29800;55.942;37.314;2023-02-04T00:32:56;98901.41;;;2.01;69.50
44138;BME280;29800;55.942;37.314;2023-02-04T00:35:23;98906.00;;;1.94;69.41
44138;BME280;29800;55.942;37.314;2023-02-04T00:37:51;98915.97;;;1.93;69.29
44138;BME280;29800;55.942;37.314;2023-02-04T00:40:17;98909.97;;;1.91;69.80
44138;BME280;29800;55.942;37.314;2023-02-04T00:42:44;98910.38;;;1.88;69.15
44138;BME280;29800;55.942;37.314;2023-02-04T00:45:10;98915.16;;;1.86;69.68
44138;BME280;29800;55.942;37.314;2023-02-04T00:47:37;98917.88;;;1.86;70.25
44138;BME280;29800;55.942;37.314;2023-02-04T00:50:04;98910.81;;;1.85;69.71
44138;BME280;29800;55.942;37.314;2023-02-04T00:52:30;98913.72;;;1.83;69.95
44138;BME280;29800;55.942;37.314;2023-02-04T00:54:56;98922.88;;;1.82;69.65
44138;BME280;29800;55.942;37.314;2023-02-04T00:57:22;98927.03;;;1.78;70.44
44138;BME280;29800;55.942;37.314;2023-02-04T00:59:48;98926.41;;;1.76;70.21
44138;BME280;29800;55.942;37.314;2023-02-04T01:02:16;98932.63;;;1.77;70.13
44138;BME280;29800;55.942;37.314;2023-02-04T01:04:42;98930.34;;;1.74;70.32
44138;BME280;29800;55.942;37.314;2023-02-04T01:07:08;98930.59;;;1.72;70.31
44138;BME280;29800;55.942;37.314;2023-02-04T01:09:34;98933.03;;;1.74;70.35
44138;BME280;29800;55.942;37.314;2023-02-04T01:12:00;98937.44;;;1.68;70.51
44138;BME280;29800;55.942;37.314;2023-02-04T01:14:26;98929.97;;;1.63;70.53
44138;BME280;29800;55.942;37.314;2023-02-04T01:16:52;98937.47;;;1.61;70.65
44138;BME280;29800;55.942;37.314;2023-02-04T01:19:19;98935.38;;;1.63;70.32
44138;BME280;29800;55.942;37.314;2023-02-04T01:21:46;98935.16;;;1.65;70.59
44138;BME280;29800;55.942;37.314;2023-02-04T01:24:12;98934.75;;;1.61;70.33
44138;BME280;29800;55.942;37.314;2023-02-04T01:26:57;98935.19;;;1.58;70.43
44138;BME280;29800;55.942;37.314;2023-02-04T01:29:23;98935.38;;;1.57;70.96
44138;BME280;29800;55.942;37.314;2023-02-04T01:31:49;98947.44;;;1.54;70.41
44138;BME280;29800;55.942;37.314;2023-02-04T01:34:15;98944.75;;;1.54;70.87
44138;BME280;29800;55.942;37.314;2023-02-04T01:36:43;98946.38;;;1.55;70.47
44138;BME280;29800;55.942;37.314;2023-02-04T01:39:09;98949.09;;;1.55;70.97
44138;BME280;29800;55.942;37.314;2023-02-04T01:41:35;98947.00;;;1.57;70.53
44138;BME280;29800;55.942;37.314;2023-02-04T01:44:01;98951.78;;;1.55;70.32
44138;BME280;29800;55.942;37.314;2023-02-04T01:46:28;98961.75;;;1.55;70.45
44138;BME280;29800;55.942;37.314;2023-02-04T01:48:54;98961.97;;;1.53;70.79
44138;BME280;29800;55.942;37.314;2023-02-04T01:51:25;98965.06;;;1.57;71.03
44138;BME280;29800;55.942;37.314;2023-02-04T01:53:53;98971.47;;;1.56;70.51
44138;BME280;29800;55.942;37.314;2023-02-04T01:56:22;98975.63;;;1.58;70.69
44138;BME280;29800;55.942;37.314;2023-02-04T01:58:50;98978.34;;;1.58;70.12
44138;BME280;29800;55.942;37.314;2023-02-04T02:01:38;98979.78;;;1.68;70.83
44138;BME280;29800;55.942;37.314;2023-02-04T02:04:09;98986.44;;;1.58;70.94
44138;BME280;29800;55.942;37.314;2023-02-04T02:06:37;98980.63;;;1.55;70.84
44138;BME280;29800;55.942;37.314;2023-02-04T02:09:04;98983.13;;;1.50;70.94
44138;BME280;29800;55.942;37.314;2023-02-04T02:11:31;98983.13;;;1.50;71.06
44138;BME280;29800;55.942;37.314;2023-02-04T02:13:59;98993.28;;;1.47;70.84
44138;BME280;29800;55.942;37.314;2023-02-04T02:16:45;98998.91;;;1.46;70.85
44138;BME280;29800;55.942;37.314;2023-02-04T02:19:15;98999.72;;;1.46;71.31
44138;BME280;29800;55.942;37.314;2023-02-04T02:21:50;98998.47;;;1.49;70.74
44138;BME280;29800;55.942;37.314;2023-02-04T02:24:27;98999.72;;;1.46;70.65
44138;BME280;29800;55.942;37.314;2023-02-04T02:26:55;99003.25;;;1.40;70.92
44138;BME280;29800;55.942;37.314;2023-02-04T02:29:24;99004.28;;;1.33;71.29
44138;BME280;29800;55.942;37.314;2023-02-04T02:31:51;99005.75;;;1.28;70.94
44138;BME280;29800;55.942;37.314;2023-02-04T02:34:18;99005.97;;;1.27;71.12
44138;BME280;29800;55.942;37.314;2023-02-04T02:36:44;99007.63;;;1.28;71.34
44138;BME280;29800;55.942;37.314;2023-02-04T02:39:10;99002.84;;;1.30;71.29
44138;BME280;29800;55.942;37.314;2023-02-04T02:41:37;99006.38;;;1.31;70.85
44138;BME280;29800;55.942;37.314;2023-02-04T02:44:04;99013.44;;;1.32;71.29
44138;BME280;29800;55.942;37.314;2023-02-04T02:46:30;99014.25;;;1.39;71.10
44138;BME280;29800;55.942;37.314;2023-02-04T02:48:56;99011.13;;;1.42;70.44
44138;BME280;29800;55.942;37.314;2023-02-04T02:51:22;99011.34;;;1.47;70.67
44138;BME280;29800;55.942;37.314;2023-02-04T02:53:51;99019.84;;;1.51;70.46
44138;BME280;29800;55.942;37.314;2023-02-04T02:56:18;99016.31;;;1.50;70.28
44138;BME280;29800;55.942;37.314;2023-02-04T02:58:44;99020.91;;;1.50;70.38
44138;BME280;29800;55.942;37.314;2023-02-04T03:01:11;99029.19;;;1.48;70.06
44138;BME280;29800;55.942;37.314;2023-02-04T03:03:48;99027.94;;;1.51;70.04
44138;BME280;29800;55.942;37.314;2023-02-04T03:06:18;99026.50;;;1.48;70.09
44138;BME280;29800;55.942;37.314;2023-02-04T03:08:48;99033.75;;;1.54;70.26
44138;BME280;29800;55.942;37.314;2023-02-04T03:11:17;99026.69;;;1.53;70.35
44138;BME280;29800;55.942;37.314;2023-02-04T03:13:43;99028.13;;;1.49;69.73
44138;BME280;29800;55.942;37.314;2023-02-04T03:16:09;99027.09;;;1.50;70.16
44138;BME280;29800;55.942;37.314;2023-02-04T03:18:36;99037.50;;;1.53;70.37
44138;BME280;29800;55.942;37.314;2023-02-04T03:21:03;99039.16;;;1.54;69.69
44138;BME280;29800;55.942;37.314;2023-02-04T03:23:33;99037.69;;;1.58;69.55
44138;BME280;29800;55.942;37.314;2023-02-04T03:26:02;99040.78;;;1.55;69.88
44138;BME280;29800;55.942;37.314;2023-02-04T03:28:28;99043.50;;;1.55;69.68
44138;BME280;29800;55.942;37.314;2023-02-04T03:30:56;99044.09;;;1.57;69.26
44138;BME280;29800;55.942;37.314;2023-02-04T03:33:25;99037.06;;;1.56;69.48
44138;BME280;29800;55.942;37.314;2023-02-04T03:35:53;99038.31;;;1.47;69.56
44138;BME280;29800;55.942;37.314;2023-02-04T03:38:19;99032.72;;;1.42;69.97
44138;BME280;29800;55.942;37.314;2023-02-04T03:40:45;99035.81;;;1.39;69.66
44138;BME280;29800;55.942;37.314;2023-02-04T03:43:11;99034.19;;;1.38;69.85
44138;BME280;29800;55.942;37.314;2023-02-04T03:45:37;99035.00;;;1.38;69.32
44138;BME280;29800;55.942;37.314;2023-02-04T03:48:03;99038.13;;;1.35;69.28
44138;BME280;29800;55.942;37.314;2023-02-04T03:50:30;99047.84;;;1.29;69.18
44138;BME280;29800;55.942;37.314;2023-02-04T03:52:56;99048.69;;;1.23;69.60
44138;BME280;29800;55.942;37.314;2023-02-04T03:55:22;99053.66;;;1.20;69.40
44138;BME280;29800;55.942;37.314;2023-02-04T03:57:48;99051.59;;;1.15;69.36
44138;BME280;29800;55.942;37.314;2023-02-04T04:00:14;99058.00;;;1.14;69.13
44138;BME280;29800;55.942;37.314;2023-02-04T04:02:40;99065.47;;;1.12;69.31
44138;BME280;29800;55.942;37.314;2023-02-04T04:05:08;99066.50;;;1.11;69.36
44138;BME280;29800;55.942;37.314;2023-02-04T04:07:34;99064.84;;;1.10;69.20
44138;BME280;29800;55.942;37.314;2023-02-04T04:10:00;99072.69;;;1.05;69.32
44138;BME280;29800;55.942;37.314;2023-02-04T04:12:26;99074.78;;;1.03;69.49
44138;BME280;29800;55.942;37.314;2023-02-04T04:14:52;99074.38;;;1.06;69.55
44138;BME280;29800;55.942;37.314;2023-02-04T04:17:18;99074.38;;;1.06;69.36
44138;BME280;29800;55.942;37.314;2023-02-04T04:19:44;99078.09;;;1.05;69.55
44138;BME280;29800;55.942;37.314;2023-02-04T04:22:10;99073.56;;;1.05;69.68
44138;BME280;29800;55.942;37.314;2023-02-04T04:24:36;99074.38;;;1.06;69.82
44138;BME280;29800;55.942;37.314;2023-02-04T04:27:02;99086.81;;;1.07;68.95
44138;BME280;29800;55.942;37.314;2023-02-04T04:29:28;99090.94;;;1.03;69.21
44138;BME280;29800;55.942;37.314;2023-02-04T04:31:54;99096.53;;;1.01;69.07
44138;BME280;29800;55.942;37.314;2023-02-04T04:34:20;99093.44;;;0.98;68.81
44138;BME280;29800;55.942;37.314;2023-02-04T04:36:46;99096.72;;;0.93;69.52
44138;BME280;29800;55.942;37.314;2023-02-04T04:39:12;99099.63;;;0.91;69.32
44138;BME280;29800;55.942;37.314;2023-02-04T04:41:38;99106.88;;;0.91;69.05
44138;BME280;29800;55.942;37.314;2023-02-04T04:44:05;99117.47;;;0.93;69.65
44138;BME280;29800;55.942;37.314;2023-02-04T04:46:31;99111.88;;;1.01;70.14
44138;BME280;29800;55.942;37.314;2023-02-04T04:48:57;99115.63;;;1.06;69.77
44138;BME280;29800;55.942;37.314;2023-02-04T04:51:23;99116.69;;;1.12;69.71
44138;BME280;29800;55.942;37.314;2023-02-04T04:53:49;99116.28;;;1.15;69.10
44138;BME280;29800;55.942;37.314;2023-02-04T04:56:15;99111.09;;;1.14;69.62
44138;BME280;29800;55.942;37.314;2023-02-04T04:58:41;99113.38;;;1.10;68.76
44138;BME280;29800;55.942;37.314;2023-02-04T05:01:07;99117.09;;;1.09;68.96
44138;BME280;29800;55.942;37.314;2023-02-04T05:03:33;99127.03;;;1.02;68.71
44138;BME280;29800;55.942;37.314;2023-02-04T05:05:59;99129.91;;;0.94;68.77
44138;BME280;29800;55.942;37.314;2023-02-04T05:08:25;99137.56;;;0.90;69.15
44138;BME280;29800;55.942;37.314;2023-02-04T05:10:51;99139.22;;;0.91;69.60
44138;BME280;29800;55.942;37.314;2023-02-04T05:13:17;99151.00;;;0.83;69.75
44138;BME280;29800;55.942;37.314;2023-02-04T05:15:43;99151.41;;;0.80;69.92
44138;BME280;29800;55.942;37.314;2023-02-04T05:18:09;99159.09;;;0.83;70.46
44138;BME280;29800;55.942;37.314;2023-02-04T05:20:35;99166.97;;;0.85;69.67
44138;BME280;29800;55.942;37.314;2023-02-04T05:23:01;99153.28;;;0.86;70.28
44138;BME280;29800;55.942;37.314;2023-02-04T05:25:28;99154.78;;;0.89;69.86
44138;BME280;29800;55.942;37.314;2023-02-04T05:27:55;99161.19;;;0.95;69.56
44138;BME280;29800;55.942;37.314;2023-02-04T05:30:21;99167.22;;;0.97;70.00
44138;BME280;29800;55.942;37.314;2023-02-04T05:32:47;99168.88;;;0.98;70.20
44138;BME280;29800;55.942;37.314;2023-02-04T05:35:13;99175.09;;;0.98;69.58
44138;BME280;29800;55.942;37.314;2023-02-04T05:37:39;99169.50;;;1.00;69.65
44138;BME280;29800;55.942;37.314;2023-02-04T05:40:07;99174.72;;;1.08;69.63
44138;BME280;29800;55.942;37.314;2023-02-04T05:42:33;99178.88;;;1.10;70.09
44138;BME280;29800;55.942;37.314;2023-02-04T05:44:59;99176.41;;;1.16;69.49
44138;BME280;29800;55.942;37.314;2023-02-04T05:47:25;99174.75;;;1.21;69.27
44138;BME280;29800;55.942;37.314;2023-02-04T05:49:51;99186.41;;;1.22;69.40
44138;BME280;29800;55.942;37.314;2023-02-04T05:52:17;99190.94;;;1.21;69.54
44138;BME280;29800;55.942;37.314;2023-02-04T05:54:43;99191.38;;;1.18;69.10
44138;BME280;29800;55.942;37.314;2023-02-04T05:57:09;99190.50;;;1.18;69.31
44138;BME280;29800;55.942;37.314;2023-02-04T05:59:35;99199.03;;;1.21;68.94
44138;BME280;29800;55.942;37.314;2023-02-04T06:02:01;99202.16;;;1.25;68.88
44138;BME280;29800;55.942;37.314;2023-02-04T06:04:27;99206.72;;;1.24;69.38
44138;BME280;29800;55.942;37.314;2023-02-04T06:06:53;99201.31;;;1.24;68.65
44138;BME280;29800;55.942;37.314;2023-02-04T06:09:19;99205.50;;;1.27;69.01
44138;BME280;29800;55.942;37.314;2023-02-04T06:11:45;99212.31;;;1.29;69.15
44138;BME280;29800;55.942;37.314;2023-02-04T06:14:11;99213.38;;;1.28;68.44
44138;BME280;29800;55.942;37.314;2023-02-04T06:16:37;99217.09;;;1.27;69.14
44138;BME280;29800;55.942;37.314;2023-02-04T06:19:03;99216.09;;;1.35;68.82
44138;BME280;29800;55.942;37.314;2023-02-04T06:21:29;99224.19;;;1.42;68.81
44138;BME280;29800;55.942;37.314;2023-02-04T06:23:55;99223.41;;;1.48;68.14
44138;BME280;29800;55.942;37.314;2023-02-04T06:26:22;99222.59;;;1.54;67.97
44138;BME280;29800;55.942;37.314;2023-02-04T06:28:48;99223.63;;;1.60;67.80
44138;BME280;29800;55.942;37.314;2023-02-04T06:31:14;99223.41;;;1.61;67.67
44138;BME280;29800;55.942;37.314;2023-02-04T06:33:40;99231.94;;;1.65;67.39
44138;BME280;29800;55.942;37.314;2023-02-04T06:36:06;99233.41;;;1.68;67.25
44138;BME280;29800;55.942;37.314;2023-02-04T06:38:32;99230.09;;;1.72;67.26
44138;BME280;29800;55.942;37.314;2023-02-04T06:40:58;99235.50;;;1.72;67.34
44138;BME280;29800;55.942;37.314;2023-02-04T06:43:24;99243.78;;;1.71;66.92
44138;BME280;29800;55.942;37.314;2023-02-04T06:45:52;99248.53;;;1.69;67.09
44138;BME280;29800;55.942;37.314;2023-02-04T06:48:18;99260.19;;;1.69;67.12
44138;BME280;29800;55.942;37.314;2023-02-04T06:50:44;99262.41;;;1.59;66.76
44138;BME280;29800;55.942;37.314;2023-02-04T06:53:10;99259.91;;;1.57;66.76
44138;BME280;29800;55.942;37.314;2023-02-04T06:55:36;99264.50;;;1.57;66.83
44138;BME280;29800;55.942;37.314;2023-02-04T06:58:02;99267.19;;;1.57;66.96
44138;BME280;29800;55.942;37.314;2023-02-04T07:00:29;99269.06;;;1.56;67.13
44138;BME280;29800;55.942;37.314;2023-02-04T07:02:56;99271.97;;;1.55;67.42
44138;BME280;29800;55.942;37.314;2023-02-04T07:05:23;99274.88;;;1.53;67.01
44138;BME280;29800;55.942;37.314;2023-02-04T07:07:49;99273.59;;;1.56;67.64
44138;BME280;29800;55.942;37.314;2023-02-04T07:10:16;99281.09;;;1.60;67.19
44138;BME280;29800;55.942;37.314;2023-02-04T07:12:42;99277.38;;;1.61;67.26
44138;BME280;29800;55.942;37.314;2023-02-04T07:15:09;99282.16;;;1.59;67.25
44138;BME280;29800;55.942;37.314;2023-02-04T07:17:35;99281.50;;;1.57;67.09
44138;BME280;29800;55.942;37.314;2023-02-04T07:20:01;99283.16;;;1.52;67.40
44138;BME280;29800;55.942;37.314;2023-02-04T07:22:28;99291.44;;;1.50;67.33
44138;BME280;29800;55.942;37.314;2023-02-04T07:24:55;99289.97;;;1.47;67.20
44138;BME280;29800;55.942;37.314;2023-02-04T07:27:20;99294.31;;;1.42;66.80
44138;BME280;29800;55.942;37.314;2023-02-04T07:29:46;99293.69;;;1.40;67.24
44138;BME280;29800;55.942;37.314;2023-02-04T07:32:12;99295.53;;;1.39;67.01
44138;BME280;29800;55.942;37.314;2023-02-04T07:34:38;99298.47;;;1.38;67.79
44138;BME280;29800;55.942;37.314;2023-02-04T07:37:04;99306.34;;;1.39;67.69
44138;BME280;29800;55.942;37.314;2023-02-04T07:39:31;99304.09;;;1.43;67.96
44138;BME280;29800;55.942;37.314;2023-02-04T07:41:57;99305.72;;;1.44;67.76
44138;BME280;29800;55.942;37.314;2023-02-04T07:44:31;99309.72;;;1.48;67.64
44138;BME280;29800;55.942;37.314;2023-02-04T07:46:57;99313.25;;;1.55;67.38
44138;BME280;29800;55.942;37.314;2023-02-04T07:49:23;99306.84;;;1.63;67.91
44138;BME280;29800;55.942;37.314;2023-02-04T07:51:49;99315.19;;;1.75;67.89
44138;BME280;29800;55.942;37.314;2023-02-04T07:54:15;99311.91;;;1.86;67.35
44138;BME280;29800;55.942;37.314;2023-02-04T07:56:41;99318.13;;;1.93;67.30
44138;BME280;29800;55.942;37.314;2023-02-04T07:59:07;99319.41;;;1.97;67.07
44138;BME280;29800;55.942;37.314;2023-02-04T08:01:33;99319.81;;;2.01;66.72
44138;BME280;29800;55.942;37.314;2023-02-04T08:03:59;99321.91;;;1.99;66.18
44138;BME280;29800;55.942;37.314;2023-02-04T08:06:25;99325.63;;;1.98;66.46
44138;BME280;29800;55.942;37.314;2023-02-04T08:08:51;99334.34;;;2.00;66.62
44138;BME280;29800;55.942;37.314;2023-02-04T08:11:17;99331.25;;;2.03;66.44
44138;BME280;29800;55.942;37.314;2023-02-04T08:13:43;99331.25;;;2.10;66.38
44138;BME280;29800;55.942;37.314;2023-02-04T08:16:09;99324.84;;;2.17;66.07
44138;BME280;29800;55.942;37.314;2023-02-04T08:18:35;99325.03;;;2.23;66.46
44138;BME280;29800;55.942;37.314;2023-02-04T08:21:01;99333.75;;;2.25;66.06
44138;BME280;29800;55.942;37.314;2023-02-04T08:23:29;99325.25;;;2.28;66.10
44138;BME280;29800;55.942;37.314;2023-02-04T08:25:55;99333.75;;;2.25;65.94
44138;BME280;29800;55.942;37.314;2023-02-04T08:28:21;99337.94;;;2.20;65.63
44138;BME280;29800;55.942;37.314;2023-02-04T08:30:47;99339.38;;;2.16;66.07
44138;BME280;29800;55.942;37.314;2023-02-04T08:33:13;99342.91;;;2.17;65.87
44138;BME280;29800;55.942;37.314;2023-02-04T08:35:39;99342.06;;;2.16;65.59
44138;BME280;29800;55.942;37.314;2023-02-04T08:38:06;99349.34;;;2.16;66.17
44138;BME280;29800;55.942;37.314;2023-02-04T08:40:32;99349.56;;;2.21;66.34
44138;BME280;29800;55.942;37.314;2023-02-04T08:42:58;99351.84;;;2.24;66.04
44138;BME280;29800;55.942;37.314;2023-02-04T08:45:24;99353.31;;;2.27;65.74
44138;BME280;29800;55.942;37.314;2023-02-04T08:47:50;99358.50;;;2.28;66.14
44138;BME280;29800;55.942;37.314;2023-02-04T08:50:16;99351.84;;;2.24;66.12
44138;BME280;29800;55.942;37.314;2023-02-04T08:52:42;99360.78;;;2.25;65.18
44138;BME280;29800;55.942;37.314;2023-02-04T08:55:09;99359.34;;;2.22;65.88
44138;BME280;29800;55.942;37.314;2023-02-04T08:57:35;99364.13;;;2.20;66.06
44138;BME280;29800;55.942;37.314;2023-02-04T09:00:02;99361.00;;;2.23;65.64
44138;BME280;29800;55.942;37.314;2023-02-04T09:02:30;99364.53;;;2.30;66.32
44138;BME280;29800;55.942;37.314;2023-02-04T09:04:56;99358.31;;;2.36;65.78
44138;BME280;29800;55.942;37.314;2023-02-04T09:07:22;99360.63;;;2.46;65.54
44138;BME280;29800;55.942;37.314;2023-02-04T09:09:48;99357.28;;;2.51;65.38
44138;BME280;29800;55.942;37.314;2023-02-04T09:12:14;99361.44;;;2.53;64.99
44138;BME280;29800;55.942;37.314;2023-02-04T09:14:40;99360.81;;;2.45;64.68
44138;BME280;29800;55.942;37.314;2023-02-04T09:17:06;99364.13;;;2.40;64.92
44138;BME280;29800;55.942;37.314;2023-02-04T09:19:32;99368.72;;;2.39;64.67
44138;BME280;29800;55.942;37.314;2023-02-04T09:21:58;99370.34;;;2.34;64.96
44138;BME280;29800;55.942;37.314;2023-02-04T09:24:24;99376.16;;;2.31;65.22
44138;BME280;29800;55.942;37.314;2023-02-04T09:26:50;99371.81;;;2.30;65.69
44138;BME280;29800;55.942;37.314;2023-02-04T09:29:16;99377.22;;;2.30;65.71
44138;BME280;29800;55.942;37.314;2023-02-04T09:31:42;99382.22;;;2.33;65.09
44138;BME280;29800;55.942;37.314;2023-02-04T09:34:08;99383.84;;;2.34;64.85
44138;BME280;29800;55.942;37.314;2023-02-04T09:36:35;99390.09;;;2.34;65.09
44138;BME280;29800;55.942;37.314;2023-02-04T09:39:04;99383.66;;;2.35;65.53
44138;BME280;29800;55.942;37.314;2023-02-04T09:41:32;99395.09;;;2.37;65.67
44138;BME280;29800;55.942;37.314;2023-02-04T09:43:59;99388.03;;;2.36;65.30
44138;BME280;29800;55.942;37.314;2023-02-04T09:46:26;99394.47;;;2.35;65.36
44138;BME280;29800;55.942;37.314;2023-02-04T09:48:54;99397.56;;;2.32;65.35
44138;BME280;29800;55.942;37.314;2023-02-04T09:51:24;99391.34;;;2.32;65.20
44138;BME280;29800;55.942;37.314;2023-02-04T09:53:51;99393.84;;;2.33;65.17
44138;BME280;29800;55.942;37.314;2023-02-04T09:56:19;99396.53;;;2.33;65.32
44138;BME280;29800;55.942;37.314;2023-02-04T09:58:45;99399.25;;;2.33;65.20
44138;BME280;29800;55.942;37.314;2023-02-04T10:01:16;99401.34;;;2.38;64.89
44138;BME280;29800;55.942;37.314;2023-02-04T10:03:45;99400.06;;;2.34;65.48
44138;BME280;29800;55.942;37.314;2023-02-04T10:06:22;99398.84;;;2.36;64.99
44138;BME280;29800;55.942;37.314;2023-02-04T10:08:50;99405.06;;;2.30;65.56
44138;BME280;29800;55.942;37.314;2023-02-04T10:11:18;99412.94;;;2.32;64.98
44138;BME280;29800;55.942;37.314;2023-02-04T10:13:47;99402.97;;;2.32;64.98
44138;BME280;29800;55.942;37.314;2023-02-04T10:16:20;99406.72;;;2.31;65.58
44138;BME280;29800;55.942;37.314;2023-02-04T10:18:48;99412.34;;;2.30;65.13
44138;BME280;29800;55.942;37.314;2023-02-04T10:23:50;99421.25;;;2.30;65.16
44138;BME280;29800;55.942;37.314;2023-02-04T10:26:19;99421.69;;;2.34;65.05
44138;BME280;29800;55.942;37.314;2023-02-04T10:28:46;99427.69;;;2.36;65.04
44138;BME280;29800;55.942;37.314;2023-02-04T10:31:35;99428.56;;;2.50;65.20
44138;BME280;29800;55.942;37.314;2023-02-04T10:36:30;99426.88;;;2.35;65.17
44138;BME280;29800;55.942;37.314;2023-02-04T10:39:05;99428.16;;;2.39;65.36
44138;BME280;29800;55.942;37.314;2023-02-04T10:41:31;99428.34;;;2.38;65.63
44138;BME280;29800;55.942;37.314;2023-02-04T10:44:08;99436.25;;;2.46;65.69
44138;BME280;29800;55.942;37.314;2023-02-04T10:46:35;99431.25;;;2.43;65.02
44138;BME280;29800;55.942;37.314;2023-02-04T10:49:14;99438.56;;;2.49;65.28
44138;BME280;29800;55.942;37.314;2023-02-04T10:51:41;99443.13;;;2.49;65.14
44138;BME280;29800;55.942;37.314;2023-02-04T10:54:11;99448.53;;;2.55;64.59
44138;BME280;29800;55.942;37.314;2023-02-04T10:59:26;99451.44;;;2.54;64.83
44138;BME280;29800;55.942;37.314;2023-02-04T11:01:55;99449.78;;;2.53;64.64
44138;BME280;29800;55.942;37.314;2023-02-04T11:04:22;99455.19;;;2.53;64.16
44138;BME280;29800;55.942;37.314;2023-02-04T11:06:49;99462.88;;;2.49;64.26
44138;BME280;29800;55.942;37.314;2023-02-04T11:09:17;99460.59;;;2.53;64.42
44138;BME280;29800;55.942;37.314;2023-02-04T11:11:45;99460.38;;;2.54;63.82
44138;BME280;29800;55.942;37.314;2023-02-04T11:14:38;99460.19;;;2.63;63.96
44138;BME280;29800;55.942;37.314;2023-02-04T11:17:04;99460.59;;;2.46;64.31
44138;BME280;29800;55.942;37.314;2023-02-04T11:19:39;99466.81;;;2.53;64.39
44138;BME280;29800;55.942;37.314;2023-02-04T11:22:22;99470.34;;;2.54;64.08
44138;BME280;29800;55.942;37.314;2023-02-04T11:24:50;99470.53;;;2.46;64.33
44138;BME280;29800;55.942;37.314;2023-02-04T11:29:44;99475.94;;;2.46;63.50
44138;BME280;29800;55.942;37.314;2023-02-04T11:32:31;99472.44;;;2.52;63.65
44138;BME280;29800;55.942;37.314;2023-02-04T11:35:22;99471.19;;;2.54;63.75
44138;BME280;29800;55.942;37.314;2023-02-04T11:37:49;99468.03;;;2.44;64.16
44138;BME280;29800;55.942;37.314;2023-02-04T11:40:30;99470.13;;;2.49;64.84
44138;BME280;29800;55.942;37.314;2023-02-04T11:43:19;99470.72;;;2.44;64.97
44138;BME280;29800;55.942;37.314;2023-02-04T11:45:44;99476.78;;;2.46;65.24
44138;BME280;29800;55.942;37.314;2023-02-04T11:48:17;99470.75;;;2.51;65.53
44138;BME280;29800;55.942;37.314;2023-02-04T11:51:01;99483.47;;;2.64;65.42
44138;BME280;29800;55.942;37.314;2023-02-04T11:53:32;99482.63;;;2.56;65.10
44138;BME280;29800;55.942;37.314;2023-02-04T11:55:59;99480.75;;;2.57;65.30
44138;BME280;29800;55.942;37.314;2023-02-04T11:58:27;99487.81;;;2.58;65.75
44138;BME280;29800;55.942;37.314;2023-02-04T12:00:54;99484.72;;;2.54;65.00
44138;BME280;29800;55.942;37.314;2023-02-04T12:03:27;99494.47;;;2.62;65.02
44138;BME280;29800;55.942;37.314;2023-02-04T12:05:58;99496.97;;;2.64;64.72
44138;BME280;29800;55.942;37.314;2023-02-04T12:08:29;99498.44;;;2.60;64.92
44138;BME280;29800;55.942;37.314;2023-02-04T12:11:09;99499.47;;;2.65;64.72
44138;BME280;29800;55.942;37.314;2023-02-04T12:13:48;99501.75;;;2.62;64.85
44138;BME280;29800;55.942;37.314;2023-02-04T12:16:14;99506.09;;;2.49;64.70
44138;BME280;29800;55.942;37.314;2023-02-04T12:18:40;99512.75;;;2.47;65.39
44138;BME280;29800;55.942;37.314;2023-02-04T12:21:06;99511.72;;;2.48;64.61
44138;BME280;29800;55.942;37.314;2023-02-04T12:23:32;99512.94;;;2.45;65.04
44138;BME280;29800;55.942;37.314;2023-02-04T12:25:58;99516.84;;;2.43;64.59
44138;BME280;29800;55.942;37.314;2023-02-04T12:28:25;99515.63;;;2.38;64.64
44138;BME280;29800;55.942;37.314;2023-02-04T12:30:52;99518.13;;;2.47;66.15
44138;BME280;29800;55.942;37.314;2023-02-04T12:33:18;99524.75;;;2.37;65.32
44138;BME280;29800;55.942;37.314;2023-02-04T12:35:45;99531.59;;;2.33;65.50
44138;BME280;29800;55.942;37.314;2023-02-04T12:38:11;99536.78;;;2.28;65.34
44138;BME280;29800;55.942;37.314;2023-02-04T12:40:37;99539.25;;;2.23;64.94
44138;BME280;29800;55.942;37.314;2023-02-04T12:43:03;99541.69;;;2.18;65.38
44138;BME280;29800;55.942;37.314;2023-02-04T12:45:30;99541.88;;;2.16;65.12
44138;BME280;29800;55.942;37.314;2023-02-04T12:47:57;99544.16;;;2.13;65.39
44138;BME280;29800;55.942;37.314;2023-02-04T12:50:23;99547.25;;;2.10;65.88
44138;BME280;29800;55.942;37.314;2023-02-04T12:52:52;99555.34;;;2.10;65.98
44138;BME280;29800;55.942;37.314;2023-02-04T12:55:19;99557.00;;;2.04;65.43
44138;BME280;29800;55.942;37.314;2023-02-04T12:57:45;99560.91;;;2.01;65.73
44138;BME280;29800;55.942;37.314;2023-02-04T13:00:13;99565.94;;;2.05;65.80
44138;BME280;29800;55.942;37.314;2023-02-04T13:02:39;99571.91;;;2.00;66.32
44138;BME280;29800;55.942;37.314;2023-02-04T13:05:05;99562.38;;;1.97;66.51
44138;BME280;29800;55.942;37.314;2023-02-04T13:07:31;99565.25;;;1.96;65.87
44138;BME280;29800;55.942;37.314;2023-02-04T13:09:58;99574.84;;;1.98;66.29
44138;BME280;29800;55.942;37.314;2023-02-04T13:12:25;99577.31;;;2.00;66.19